Time;durP1;ratioP1;P1;durP2;ratioP2;P2;SDS_P1;SDS_P2;PMS_P1;PMS_P2;Temp;Humidity;BMP_temperature;BMP_pressure;BME280_temperature;BME280_humidity;BME280_pressure;Samples;Min_cycle;Max_cycle;Signal;HPM_P1;HPM_P2
2023/01/19 07:21:06;;;;;;;12.17;6.37;;;;;;;-5.46;100.00;98146.25;5089042;27;20844;-78
2023/01/19 07:23:33;;;;;;;15.68;6.95;;;;;;;-5.35;100.00;98170.16;5088748;28;20044;-78
2023/01/19 07:26:01;;;;;;;16.33;8.23;;;;;;;-5.42;100.00;98159.16;5088709;28;20121;-78
2023/01/19 07:28:29;;;;;;;13.33;7.53;;;;;;;-5.27;100.00;98170.47;5080553;28;20045;-78
2023/01/19 07:30:57;;;;;;;14.03;6.67;;;;;;;-5.35;100.00;98170.16;5087494;28;20052;-78
2023/01/19 07:33:25;;;;;;;15.37;6.93;;;;;;;-5.28;100.00;98175.84;5081057;28;20127;-78
2023/01/19 07:35:52;;;;;;;10.83;6.27;;;;;;;-5.31;100.00;98157.53;5087154;28;20143;-78
2023/01/19 07:38:20;;;;;;;13.57;6.57;;;;;;;-5.36;100.00;98147.25;5086520;28;20052;-78
2023/01/19 07:40:47;;;;;;;17.27;7.37;;;;;;;-5.38;100.00;98146.53;5074299;28;20060;-78
2023/01/19 07:43:14;;;;;;;15.17;7.07;;;;;;;-5.14;100.00;98188.13;5085671;28;20048;-78
2023/01/19 07:45:40;;;;;;;13.13;7.40;;;;;;;-5.17;100.00;98173.28;5073797;28;20476;-78
2023/01/19 07:48:07;;;;;;;21.13;7.60;;;;;;;-5.06;100.00;98186.63;5080624;28;20055;-78
2023/01/19 07:50:34;;;;;;;16.63;8.57;;;;;;;-5.01;100.00;98196.91;5082821;28;20492;-78
2023/01/19 07:53:05;;;;;;;16.90;7.33;;;;;;;-4.95;100.00;98199.09;5085982;28;20128;-78
2023/01/19 07:55:33;;;;;;;16.60;7.80;;;;;;;-4.98;100.00;98178.13;5079536;28;20048;-78
2023/01/19 07:58:00;;;;;;;16.03;7.10;;;;;;;-4.81;100.00;98198.94;5085880;28;20055;-78
2023/01/19 08:00:26;;;;;;;13.13;8.20;;;;;;;-4.67;100.00;98191.78;5078638;28;20052;-78
2023/01/19 08:02:58;;;;;;;11.73;7.40;;;;;;;-4.57;100.00;98192.78;5082483;28;20094;-78
2023/01/19 08:05:24;;;;;;;12.50;6.80;;;;;;;-4.46;100.00;98184.03;5075549;28;20049;-78
2023/01/19 08:07:51;;;;;;;17.30;8.10;;;;;;;-4.23;100.00;98192.94;5066752;28;20057;-78
2023/01/19 08:10:21;;;;;;;12.53;7.93;;;;;;;-4.05;100.00;98206.63;5076690;28;20135;-78
2023/01/19 08:12:49;;;;;;;19.20;8.60;;;;;;;-3.84;100.00;98220.09;5078960;28;20189;-78
2023/01/19 08:15:16;;;;;;;16.83;8.70;;;;;;;-4.03;100.00;98201.22;5076464;28;20419;-78
2023/01/19 08:17:42;;;;;;;18.03;7.77;;;;;;;-3.96;100.00;98205.94;5063062;28;20457;-78
2023/01/19 08:20:11;;;;;;;18.03;8.90;;;;;;;-4.02;100.00;98194.91;5066091;28;20053;-78
2023/01/19 08:22:37;;;;;;;17.80;9.00;;;;;;;-3.85;100.00;98229.00;5063995;28;20068;-78
2023/01/19 08:25:04;;;;;;;16.53;8.63;;;;;;;-3.79;100.00;98217.06;5058163;28;20119;-78
2023/01/19 08:27:31;;;;;;;13.47;7.43;;;;;;;-3.75;100.00;98229.13;5066281;28;20057;-78
2023/01/19 08:29:59;;;;;;;13.13;7.63;;;;;;;-3.78;100.00;98222.28;5066277;28;20052;-78
2023/01/19 08:32:26;;;;;;;19.60;8.87;;;;;;;-3.86;100.00;98200.75;5047619;28;20507;-78
2023/01/19 08:34:52;;;;;;;16.83;7.87;;;;;;;-3.62;100.00;98223.75;5052575;28;20458;-78
2023/01/19 08:37:18;;;;;;;14.87;8.57;;;;;;;-3.66;100.00;98199.19;5051866;28;20080;-78
2023/01/19 08:39:45;;;;;;;11.00;7.17;;;;;;;-3.41;100.00;98232.69;5053102;28;20416;-78
2023/01/19 08:42:11;;;;;;;17.23;8.47;;;;;;;-3.41;100.00;98232.69;5050574;28;20049;-78
2023/01/19 08:44:38;;;;;;;15.27;8.57;;;;;;;-3.45;100.00;98212.63;5044586;28;20061;-78
2023/01/19 08:47:07;;;;;;;16.20;8.50;;;;;;;-3.21;100.00;98246.22;5052604;28;20045;-78
2023/01/19 08:49:34;;;;;;;18.17;9.17;;;;;;;-3.25;100.00;98221.72;5052912;28;20455;-78
2023/01/19 08:52:01;;;;;;;18.73;9.10;;;;;;;-2.90;100.00;98231.34;5049713;28;20427;-78
2023/01/19 08:54:28;;;;;;;15.43;8.40;;;;;;;-2.82;100.00;98219.25;5044123;28;20061;-78
2023/01/19 08:56:55;;;;;;;19.30;9.13;;;;;;;-2.82;100.00;98230.75;5052571;28;20060;-78
2023/01/19 08:59:22;;;;;;;13.50;7.70;;;;;;;-2.61;100.00;98236.13;5052605;28;20051;-78
2023/01/19 09:01:48;;;;;;;19.85;8.98;;;;;;;-2.71;100.00;98220.09;5045098;28;20054;-78
2023/01/19 09:04:16;;;;;;;13.77;8.10;;;;;;;-2.61;100.00;98224.66;5046961;28;20052;-78
2023/01/19 09:06:42;;;;;;;16.20;8.00;;;;;;;-2.67;100.00;98220.69;5046137;28;20072;-78
2023/01/19 09:09:09;;;;;;;20.43;8.83;;;;;;;-2.83;100.00;98213.09;5051202;28;20053;-78
2023/01/19 09:11:35;;;;;;;12.87;8.13;;;;;;;-2.72;100.00;98212.22;5045461;28;20045;-78
2023/01/19 09:14:04;;;;;;;14.77;8.47;;;;;;;-2.52;100.00;98238.06;5048037;28;20057;-78
2023/01/19 09:16:31;;;;;;;16.95;8.65;;;;;;;-2.53;100.00;98219.53;5047461;28;20171;-78
2023/01/19 09:18:57;;;;;;;16.92;8.75;;;;;;;-2.45;100.00;98222.44;5045550;28;20041;-78
2023/01/19 09:21:25;;;;;;;14.88;8.30;;;;;;;-2.42;100.00;98214.19;5048887;28;20045;-78
2023/01/19 09:23:53;;;;;;;16.00;8.20;;;;;;;-2.21;100.00;98230.22;5031532;28;20049;-78
2023/01/19 09:26:21;;;;;;;17.15;8.48;;;;;;;-2.13;100.00;98230.41;5045657;28;20053;-78
2023/01/19 09:28:47;;;;;;;14.65;8.52;;;;;;;-2.09;100.00;98228.38;5051827;28;20049;-79
2023/01/19 09:31:15;;;;;;;20.00;8.90;;;;;;;-2.05;100.00;98247.59;5051171;28;20057;-78
2023/01/19 09:33:41;;;;;;;19.17;9.38;;;;;;;-1.94;100.00;98252.88;5050938;28;20068;-79
2023/01/19 09:36:08;;;;;;;16.77;8.60;;;;;;;-2.03;100.00;98229.66;5039940;28;20159;-79
2023/01/19 09:38:37;;;;;;;14.82;8.40;;;;;;;-1.98;100.00;98228.28;5051268;28;20044;-78
2023/01/19 09:41:04;;;;;;;18.20;9.27;;;;;;;-1.89;100.00;98252.50;5050715;28;20037;-78
2023/01/19 09:43:39;;;;;;;15.23;7.70;;;;;;;-1.85;100.00;98228.13;5047810;28;20114;-78
2023/01/19 09:46:12;;;;;;;17.42;8.88;;;;;;;-1.87;100.00;98222.06;5043096;28;20628;-78
2023/01/19 09:48:47;;;;;;;14.25;7.93;;;;;;;-1.65;100.00;98238.91;5031600;28;20365;-78
2023/01/19 09:51:18;;;;;;;16.48;8.00;;;;;;;-1.64;100.00;98221.94;5031857;28;20057;-78
2023/01/19 09:53:56;;;;;;;11.60;6.97;;;;;;;-1.51;100.00;98248.41;5043978;28;20051;-78
2023/01/19 09:56:24;;;;;;;19.15;8.43;;;;;;;-1.58;100.00;98218.75;5048734;28;20045;-79
2023/01/19 09:58:51;;;;;;;17.85;8.07;;;;;;;-1.38;100.00;98241.03;5033183;28;20114;-78
2023/01/19 10:01:34;;;;;;;18.30;8.25;;;;;;;-1.44;100.00;98228.25;5051598;28;20045;-79
2023/01/19 10:04:14;;;;;;;13.15;7.50;;;;;;;-1.46;100.00;98208.84;5049827;28;20053;-79
2023/01/19 10:06:42;;;;;;;18.10;9.20;;;;;;;-1.38;100.00;98206.38;5043111;28;20053;-79
2023/01/19 10:09:17;;;;;;;15.77;9.73;;;;;;;-1.36;100.00;98199.06;5042373;28;20054;-78
2023/01/19 10:11:50;;;;;;;32.10;11.40;;;;;;;-1.16;100.00;98208.03;5030232;28;20463;-79
2023/01/19 10:14:25;;;;;;;16.20;8.25;;;;;;;-0.98;100.00;98231.38;5040600;28;20056;-79
2023/01/19 10:16:57;;;;;;;19.25;7.90;;;;;;;-1.01;100.00;98212.97;5048807;28;20057;-79
2023/01/19 10:19:29;;;;;;;17.00;8.80;;;;;;;-0.98;100.00;98210.03;5050751;28;20049;-78
2023/01/19 10:22:01;;;;;;;20.15;7.80;;;;;;;-1.01;100.00;98213.84;5031015;28;20049;-78
2023/01/19 10:24:33;;;;;;;16.48;7.40;;;;;;;-1.05;100.00;98192.88;5038046;28;20045;-78
2023/01/19 10:26:59;;;;;;;16.42;8.50;;;;;;;-1.07;100.00;98211.69;5046891;28;20052;-79
2023/01/19 10:29:33;;;;;;;13.85;7.82;;;;;;;-0.98;100.00;98210.03;5049512;28;20049;-79
2023/01/19 10:32:07;;;;;;;13.32;7.82;;;;;;;-0.83;100.00;98203.34;5042849;28;20046;-78
2023/01/19 10:34:34;;;;;;;14.10;6.68;;;;;;;-0.71;100.00;98204.06;5035967;28;20407;-78
2023/01/19 10:37:05;;;;;;;12.95;7.45;;;;;;;-0.79;100.00;98199.44;5040857;28;20482;-78
2023/01/19 10:39:32;;;;;;;11.30;6.78;;;;;;;-0.46;100.00;98217.91;5042723;28;20059;-78
2023/01/19 10:42:05;;;;;;;11.73;6.82;;;;;;;-0.37;100.00;98217.06;5041434;28;20480;-78
2023/01/19 10:44:37;;;;;;;16.48;6.95;;;;;;;-0.27;100.00;98207.25;5033610;28;20044;-78
2023/01/19 10:47:05;;;;;;;12.07;6.28;;;;;;;-0.28;100.00;98202.88;5050508;28;20056;-78
2023/01/19 10:49:37;;;;;;;11.73;5.63;;;;;;;-0.23;100.00;98213.16;5044037;28;20132;-79
2023/01/19 10:52:06;;;;;;;14.45;6.55;;;;;;;-0.10;100.00;98223.56;5047106;28;20064;-79
2023/01/19 10:54:37;;;;;;;11.18;5.88;;;;;;;-0.14;100.00;98206.97;5048398;28;20080;-79
2023/01/19 10:57:07;;;;;;;10.60;5.80;;;;;;;-0.08;100.00;98226.94;5042345;28;20131;-79
2023/01/19 10:59:36;;;;;;;9.98;6.50;;;;;;;-0.07;100.00;98223.28;5050255;28;20095;-79
2023/01/19 11:02:15;;;;;;;9.57;5.68;;;;;;;-0.02;100.00;98226.38;5049086;28;20496;-79
2023/01/19 11:04:43;;;;;;;20.58;7.68;;;;;;;0.04;100.00;98220.47;5047618;28;20522;-78
2023/01/19 11:07:17;;;;;;;16.08;6.13;;;;;;;-0.05;100.00;98210.63;5046607;28;20060;-78
2023/01/19 11:09:45;;;;;;;14.18;6.28;;;;;;;0.02;100.00;98216.25;5050194;28;20055;-79
2023/01/19 11:12:18;;;;;;;12.65;6.25;;;;;;;0.07;100.00;98227.34;5048603;28;20056;-78
2023/01/19 11:14:46;;;;;;;10.30;5.53;;;;;;;-0.05;100.00;98206.09;5045457;28;20281;-78
2023/01/19 11:17:19;;;;;;;13.82;5.65;;;;;;;0.12;100.00;98227.75;5049227;28;20412;-78
2023/01/19 11:19:57;;;;;;;12.23;5.95;;;;;;;-0.02;100.00;98203.16;5043955;28;20080;-78
2023/01/19 11:22:28;;;;;;;14.88;7.00;;;;;;;0.07;100.00;98195.28;5034226;28;20249;-79
2023/01/19 11:25:01;;;;;;;13.57;5.55;;;;;;;0.35;100.00;98213.13;5048859;28;20396;-79
2023/01/19 11:27:29;;;;;;;14.18;6.68;;;;;;;0.38;100.00;98189.75;5048853;28;20398;-78
2023/01/19 11:30:06;;;;;;;16.50;6.55;;;;;;;0.49;100.00;98189.59;5046587;28;20049;-79
2023/01/19 11:32:35;;;;;;;10.52;6.15;;;;;;;0.80;100.00;98195.53;5049403;28;20477;-79
2023/01/19 11:35:02;;;;;;;19.33;6.10;;;;;;;1.01;100.00;98202.47;5050572;28;20107;-78
2023/01/19 11:37:33;;;;;;;15.52;7.10;;;;;;;1.20;100.00;98206.91;5048408;28;20132;-78
2023/01/19 11:40:04;;;;;;;10.90;6.03;;;;;;;0.84;100.00;98191.59;5048870;28;20489;-79
2023/01/19 11:42:35;;;;;;;9.77;5.55;;;;;;;0.58;100.00;98186.03;5040581;28;20047;-78
2023/01/19 11:45:07;;;;;;;9.60;5.15;;;;;;;0.61;100.00;98215.16;5050188;28;20171;-79
2023/01/19 11:47:41;;;;;;;11.80;6.05;;;;;;;0.37;100.00;98182.72;5045089;28;20057;-79
2023/01/19 11:50:15;;;;;;;13.00;5.53;;;;;;;0.18;100.00;98189.78;5043223;28;20041;-79
2023/01/19 11:52:45;;;;;;;8.07;4.80;;;;;;;0.20;100.00;98206.53;5048811;28;20049;-79
2023/01/19 11:55:19;;;;;;;12.45;5.70;;;;;;;0.15;100.00;98198.06;5049958;28;20401;-79
2023/01/19 11:57:48;;;;;;;11.63;5.35;;;;;;;0.16;100.00;98194.44;5048422;28;20053;-79
2023/01/19 12:00:27;;;;;;;8.77;5.28;;;;;;;0.10;100.00;98193.16;5048810;28;20048;-79
2023/01/19 12:02:58;;;;;;;12.60;5.47;;;;;;;0.04;100.00;98171.53;5040712;28;20088;-79
2023/01/19 12:05:32;;;;;;;14.15;6.25;;;;;;;0.22;100.00;98204.56;5049940;28;20049;-79
2023/01/19 12:08:03;;;;;;;18.73;7.57;;;;;;;0.12;100.00;98214.41;5051689;28;20052;-79
2023/01/19 12:10:34;;;;;;;11.85;6.72;;;;;;;-0.11;100.00;98198.66;5044708;28;20060;-79
2023/01/19 12:13:02;;;;;;;9.85;6.25;;;;;;;-0.08;100.00;98206.41;5043298;28;20060;-79
2023/01/19 12:15:35;;;;;;;13.88;5.65;;;;;;;-0.14;100.00;98201.63;5053918;28;20049;-79
2023/01/19 12:18:04;;;;;;;17.10;5.55;;;;;;;-0.04;100.00;98218.50;5052699;28;20053;-79
2023/01/19 12:20:36;;;;;;;26.85;6.07;;;;;;;-0.02;100.00;98210.34;5051511;28;20567;-79
2023/01/19 12:23:11;;;;;;;18.63;5.95;;;;;;;0.02;100.00;98214.44;5052466;28;20060;-79
2023/01/19 12:25:53;;;;;;;21.35;6.05;;;;;;;-0.10;100.00;98228.91;5051640;28;20045;-79
2023/01/19 12:28:23;;;;;;;34.25;5.95;;;;;;;-0.07;100.00;98215.28;5049778;28;20455;-79
2023/01/19 12:30:51;;;;;;;12.85;5.75;;;;;;;-0.15;100.00;98210.63;5048009;28;20076;-79
2023/01/19 12:33:24;;;;;;;17.50;5.63;;;;;;;-0.12;100.00;98228.19;5051530;28;20052;-79
2023/01/19 12:35:55;;;;;;;10.57;5.78;;;;;;;-0.10;100.00;98219.06;5038576;28;20140;-79
2023/01/19 12:38:40;;;;;;;16.00;7.50;;;;;;;-0.27;100.00;98225.09;5036787;28;20053;-79
2023/01/19 12:41:21;;;;;;;18.88;6.55;;;;;;;-0.32;100.00;98204.13;5048728;28;20135;-79
2023/01/19 12:43:48;;;;;;;13.50;6.63;;;;;;;-0.25;100.00;98221.31;5050964;28;20045;-79
2023/01/19 12:46:27;;;;;;;12.65;6.70;;;;;;;-0.45;100.00;98208.91;5050033;28;20048;-79
2023/01/19 12:48:54;;;;;;;11.70;6.88;;;;;;;-0.48;100.00;98207.38;5052607;28;20061;-79
2023/01/19 12:51:24;;;;;;;11.93;7.32;;;;;;;-0.29;100.00;98221.72;5052801;28;20049;-79
2023/01/19 12:53:53;;;;;;;7.50;5.00;;;;;;;-0.34;100.00;98216.78;5036684;28;20067;-80
2023/01/19 12:56:29;;;;;;;9.52;5.10;;;;;;;-0.31;100.00;98232.53;5051137;28;20056;-79
2023/01/19 12:58:56;;;;;;;10.48;5.35;;;;;;;-0.25;100.00;98231.16;5052606;28;20064;-79
2023/01/19 13:01:23;;;;;;;9.02;5.47;;;;;;;-0.06;100.00;98236.50;5040325;28;20453;-79
2023/01/19 13:04:05;;;;;;;9.55;5.57;;;;;;;-0.17;100.00;98219.75;5050496;28;20077;-80
2023/01/19 13:07:09;;;;;;;14.52;6.35;;;;;;;-0.01;100.00;98231.56;5049710;28;20152;-80
2023/01/19 13:09:36;;;;;;;7.10;4.75;;;;;;;-0.06;100.00;98223.16;5045061;28;20067;-80
2023/01/19 13:12:27;;;;;;;7.65;4.80;;;;;;;-0.02;100.00;98234.38;5050871;28;20056;-80
2023/01/19 13:15:28;;;;;;;5.22;4.05;;;;;;;-0.13;100.00;98208.66;5051266;28;20052;-80
2023/01/19 13:17:55;;;;;;;9.38;4.88;;;;;;;-0.19;100.00;98207.38;5040974;28;20405;-80
2023/01/19 13:20:28;;;;;;;7.90;4.72;;;;;;;0.04;100.00;98227.66;5049952;28;20045;-80
2023/01/19 13:23:21;;;;;;;8.75;4.97;;;;;;;-0.11;100.00;98203.16;5051127;28;20140;-80
2023/01/19 13:25:52;;;;;;;7.15;3.88;;;;;;;-0.02;100.00;98208.50;5051849;28;20215;-80
2023/01/19 13:28:30;;;;;;;7.80;5.35;;;;;;;0.11;100.00;98218.09;5048725;28;20514;-80
2023/01/19 13:31:01;;;;;;;8.70;5.47;;;;;;;0.08;100.00;98211.19;5052221;28;20135;-80
2023/01/19 13:33:33;;;;;;;8.90;4.88;;;;;;;0.16;100.00;98229.19;5051374;28;20083;-80
2023/01/19 13:36:00;;;;;;;12.82;5.60;;;;;;;0.06;100.00;98205.16;5051628;28;20080;-80
2023/01/19 13:38:31;;;;;;;10.25;5.43;;;;;;;0.10;100.00;98203.84;5049827;28;20075;-80
2023/01/19 13:41:01;;;;;;;9.75;6.00;;;;;;;0.24;100.00;98229.31;5050142;28;20503;-80
2023/01/19 13:43:36;;;;;;;7.90;4.20;;;;;;;0.19;100.00;98217.38;5039520;28;20463;-80
2023/01/19 13:46:05;;;;;;;9.80;5.15;;;;;;;-0.01;100.00;98214.72;5031900;28;20056;-80
2023/01/19 13:48:32;;;;;;;7.85;4.60;;;;;;;-0.09;100.00;98206.53;5043270;28;20135;-80
2023/01/19 13:51:02;;;;;;;11.45;5.30;;;;;;;-0.02;100.00;98239.72;5050224;28;20048;-80
2023/01/19 13:53:29;;;;;;;;;;;;;;;0.09;100.00;98236.06;5050146;28;20557;-80
2023/01/19 13:56:06;;;;;;;9.15;4.80;;;;;;;0.16;100.00;98231.84;5050680;28;19927;-80
2023/01/19 13:58:34;;;;;;;13.30;6.30;;;;;;;0.01;100.00;98215.41;5038991;28;20049;-80
2023/01/19 14:01:01;;;;;;;8.23;4.80;;;;;;;0.14;100.00;98226.66;5042480;28;20050;-80
2023/01/19 14:03:30;;;;;;;6.95;4.85;;;;;;;0.25;100.00;98224.81;5050829;28;20053;-80
2023/01/19 14:05:57;;;;;;;8.18;5.07;;;;;;;0.19;100.00;98239.59;5051432;28;20099;-80
2023/01/19 14:08:24;;;;;;;11.25;5.00;;;;;;;0.18;100.00;98237.88;5049757;28;20067;-80
2023/01/19 14:11:01;;;;;;;8.13;4.90;;;;;;;0.03;100.00;98223.28;5049528;28;20126;-80
2023/01/19 14:13:29;;;;;;;11.82;5.13;;;;;;;0.20;100.00;98230.59;5049709;28;20098;-80
2023/01/19 14:15:59;;;;;;;9.30;5.07;;;;;;;0.31;100.00;98238.44;5051261;28;20088;-80
2023/01/19 14:18:28;;;;;;;;;;;;;;;0.35;100.00;98244.38;5049551;28;20053;-80
2023/01/19 14:21:00;;;;;;;7.05;4.30;;;;;;;0.34;100.00;98245.34;5043668;28;20010;-80
2023/01/19 14:23:44;;;;;;;10.15;4.75;;;;;;;0.16;100.00;98231.84;5046367;28;20124;-80
2023/01/19 14:26:41;;;;;;;9.23;5.28;;;;;;;0.16;100.00;98251.41;5048517;28;20045;-80
2023/01/19 14:29:16;;;;;;;13.30;5.72;;;;;;;0.03;100.00;98225.94;5047791;28;20048;-80
2023/01/19 14:31:45;;;;;;;9.93;4.97;;;;;;;0.07;100.00;98230.03;5044971;28;20203;-80
2023/01/19 14:34:38;;;;;;;10.82;6.00;;;;;;;0.20;100.00;98245.75;5048003;28;20049;-80
2023/01/19 14:37:14;;;;;;;11.32;5.80;;;;;;;0.19;100.00;98244.09;5051434;28;20044;-80
2023/01/19 14:39:45;;;;;;;10.23;5.07;;;;;;;0.12;100.00;98236.66;5048961;28;20067;-80
2023/01/19 14:42:16;;;;;;;11.82;5.70;;;;;;;0.07;100.00;98240.72;5041542;28;20123;-80
2023/01/19 14:44:47;;;;;;;11.00;5.93;;;;;;;0.19;100.00;98236.06;5049747;28;20043;-80
2023/01/19 14:47:28;;;;;;;12.65;5.47;;;;;;;0.18;100.00;98224.53;5050692;28;20537;-81
2023/01/19 14:49:56;;;;;;;15.00;5.78;;;;;;;0.28;100.00;98227.19;5049836;28;20056;-80
2023/01/19 14:52:26;;;;;;;9.30;5.30;;;;;;;0.25;100.00;98222.13;5041434;28;20095;-80
2023/01/19 14:54:54;;;;;;;15.65;6.82;;;;;;;0.31;100.00;98232.25;5035338;28;20512;-80
2023/01/19 14:57:21;;;;;;;8.60;5.03;;;;;;;0.42;100.00;98241.94;5030685;28;20256;-80
2023/01/19 14:59:49;;;;;;;10.27;4.90;;;;;;;0.28;100.00;98244.06;5033409;28;20060;-80
2023/01/19 15:02:17;;;;;;;9.73;5.40;;;;;;;0.19;100.00;98220.03;5047204;28;20045;-80
2023/01/19 15:04:46;;;;;;;13.05;6.03;;;;;;;0.34;100.00;98243.50;5049647;28;20076;-80
2023/01/19 15:07:19;;;;;;;8.15;5.18;;;;;;;0.27;100.00;98247.75;5043308;28;20136;-80
2023/01/19 15:09:47;;;;;;;9.10;5.55;;;;;;;0.14;100.00;98220.47;5050381;28;20091;-80
2023/01/19 15:12:16;;;;;;;10.60;5.65;;;;;;;0.30;100.00;98252.81;5048675;28;20049;-81
2023/01/19 15:14:43;;;;;;;14.70;5.90;;;;;;;0.14;100.00;98240.00;5050320;28;20076;-81
2023/01/19 15:17:17;;;;;;;20.48;8.25;;;;;;;-0.02;100.00;98229.88;5048981;28;20045;-80
2023/01/19 15:19:47;;;;;;;24.85;8.40;;;;;;;0.06;100.00;98239.03;5046580;28;20048;-80
2023/01/19 15:22:13;;;;;;;17.85;8.30;;;;;;;-0.07;100.00;98226.78;5048799;28;20041;-80
2023/01/19 15:24:40;;;;;;;15.98;6.95;;;;;;;-0.03;100.00;98219.31;5050149;28;20132;-81
2023/01/19 15:27:10;;;;;;;10.90;5.82;;;;;;;-0.04;100.00;98228.34;5050358;28;20057;-80
2023/01/19 15:29:38;;;;;;;;;;;;;;;0.01;100.00;98252.81;5049452;28;20041;-81
2023/01/19 15:32:06;;;;;;;7.82;4.45;;;;;;;-0.15;100.00;98225.81;5049663;28;19921;-80
2023/01/19 15:34:33;;;;;;;9.10;4.63;;;;;;;-0.08;100.00;98238.47;5048721;28;20049;-80
2023/01/19 15:37:03;;;;;;;12.13;5.57;;;;;;;-0.01;100.00;98252.13;5049201;28;20080;-80
2023/01/19 15:39:31;;;;;;;15.18;6.15;;;;;;;-0.15;100.00;98232.00;5040740;28;20045;-80
2023/01/19 15:41:57;;;;;;;10.38;6.32;;;;;;;-0.07;100.00;98245.50;5043930;28;20045;-80
2023/01/19 15:44:24;;;;;;;7.60;4.45;;;;;;;-0.05;100.00;98254.22;5053404;28;20271;-80
2023/01/19 15:46:53;;;;;;;18.60;5.07;;;;;;;-0.23;100.00;98242.53;5053857;28;20053;-80
2023/01/19 15:49:20;;;;;;;8.75;4.68;;;;;;;-0.27;100.00;98244.66;5045106;28;20059;-80
2023/01/19 15:51:46;;;;;;;9.88;5.22;;;;;;;-0.39;100.00;98221.72;5052068;28;20056;-80
2023/01/19 15:54:16;;;;;;;10.02;6.03;;;;;;;-0.25;100.00;98245.34;5044185;28;20092;-80
2023/01/19 15:56:43;;;;;;;10.45;5.82;;;;;;;-0.34;100.00;98234.66;5053295;28;20055;-80
2023/01/19 15:59:09;;;;;;;12.45;5.07;;;;;;;-0.32;100.00;98235.34;5052735;28;20107;-80
2023/01/19 16:01:39;;;;;;;12.07;5.78;;;;;;;-0.40;100.00;98233.38;5050803;28;20060;-80
2023/01/19 16:04:08;;;;;;;10.65;5.72;;;;;;;-0.34;100.00;98245.34;5049489;28;20508;-80
2023/01/19 16:06:35;;;;;;;10.75;5.57;;;;;;;-0.49;100.00;98237.72;5053316;28;20131;-80
2023/01/19 16:09:04;;;;;;;9.18;5.03;;;;;;;-0.62;100.00;98224.59;5045310;28;20046;-80
2023/01/19 16:11:36;;;;;;;12.25;5.97;;;;;;;-0.45;100.00;98248.94;5045530;28;20481;-80
2023/01/19 16:14:03;;;;;;;11.55;5.95;;;;;;;-0.50;100.00;98254.72;5044425;28;20542;-80
2023/01/19 16:16:30;;;;;;;9.38;5.18;;;;;;;-0.51;100.00;98244.16;5033075;28;20049;-80
2023/01/19 16:18:57;;;;;;;20.00;7.05;;;;;;;-0.47;100.00;98249.09;5036554;28;20048;-80
2023/01/19 16:21:24;;;;;;;18.95;8.38;;;;;;;-0.58;100.00;98227.88;5051746;28;20049;-80
2023/01/19 16:23:50;;;;;;;18.60;8.35;;;;;;;-0.46;100.00;98242.78;5052207;28;20117;-80
2023/01/19 16:26:26;;;;;;;15.18;6.30;;;;;;;-0.50;100.00;98240.53;5052798;28;20049;-80
2023/01/19 16:28:59;;;;;;;13.93;5.65;;;;;;;-0.58;100.00;98243.88;5047296;28;20416;-80
2023/01/19 16:31:26;;;;;;;10.88;5.95;;;;;;;-0.47;100.00;98251.75;5049332;28;20144;-80
2023/01/19 16:33:53;;;;;;;12.98;5.80;;;;;;;-0.47;100.00;98240.25;5046846;28;20067;-80
2023/01/19 16:36:22;;;;;;;8.85;5.38;;;;;;;-0.61;100.00;98230.81;5051359;28;20144;-80
2023/01/19 16:38:48;;;;;;;11.43;6.45;;;;;;;-0.57;100.00;98248.25;5052117;28;20143;-80
2023/01/19 16:41:16;;;;;;;12.38;6.75;;;;;;;-0.61;100.00;98258.34;5048789;28;20478;-80
2023/01/19 16:43:42;;;;;;;11.98;6.82;;;;;;;-0.84;100.00;98231.03;5046397;28;20041;-80
2023/01/19 16:46:18;;;;;;;12.50;6.72;;;;;;;-0.77;100.00;98240.19;5045600;28;20040;-80
2023/01/19 16:48:45;;;;;;;21.17;7.72;;;;;;;-0.76;100.00;98239.19;5049039;28;20063;-80
2023/01/19 16:51:11;;;;;;;11.45;5.93;;;;;;;-0.91;100.00;98221.88;5050288;28;20175;-80
2023/01/19 16:53:38;;;;;;;13.07;6.97;;;;;;;-0.90;100.00;98231.56;5051262;28;20049;-80
2023/01/19 16:56:06;;;;;;;13.27;6.70;;;;;;;-0.76;100.00;98251.69;5052854;28;20060;-80
2023/01/19 16:58:33;;;;;;;9.75;5.95;;;;;;;-0.93;100.00;98239.84;5048289;28;20488;-80
2023/01/19 17:00:59;;;;;;;10.20;6.00;;;;;;;-1.09;100.00;98235.84;5052420;28;20159;-80
2023/01/19 17:03:28;;;;;;;8.65;5.05;;;;;;;-1.02;100.00;98244.16;5031902;28;20061;-80
2023/01/19 17:05:55;;;;;;;7.88;4.93;;;;;;;-1.17;100.00;98237.50;5042952;28;20041;-80
2023/01/19 17:08:21;;;;;;;7.70;5.80;;;;;;;-1.27;100.00;98240.09;5050763;28;20123;-80
2023/01/19 17:10:48;;;;;;;9.80;5.85;;;;;;;-1.38;100.00;98241.03;5050894;28;20056;-80
2023/01/19 17:13:15;;;;;;;12.70;6.53;;;;;;;-1.28;100.00;98239.28;5048419;28;20053;-80
2023/01/19 17:15:42;;;;;;;12.45;5.72;;;;;;;-1.13;100.00;98260.25;5047369;28;20041;-79
2023/01/19 17:18:09;;;;;;;10.85;5.82;;;;;;;-1.07;100.00;98273.91;5034427;28;20042;-79
2023/01/19 17:20:37;;;;;;;10.32;5.72;;;;;;;-1.38;100.00;98241.03;5043410;28;20106;-79
2023/01/19 17:23:04;;;;;;;7.13;4.97;;;;;;;-1.35;100.00;98261.28;5042729;28;20099;-80
2023/01/19 17:25:30;;;;;;;14.48;5.95;;;;;;;-1.28;100.00;98273.94;5049708;28;20135;-79
2023/01/19 17:27:59;;;;;;;10.60;6.18;;;;;;;-1.52;100.00;98247.56;5051033;28;20051;-79
2023/01/19 17:30:25;;;;;;;8.13;4.82;;;;;;;-1.45;100.00;98259.38;5050260;28;20049;-79
2023/01/19 17:32:52;;;;;;;9.32;5.15;;;;;;;-1.50;100.00;98245.59;5043324;28;20455;-79
2023/01/19 17:35:18;;;;;;;14.23;5.47;;;;;;;-1.47;100.00;98248.00;5050826;28;20052;-79
2023/01/19 17:37:53;;;;;;;8.15;5.30;;;;;;;-1.40;100.00;98272.34;5050978;28;20091;-79
2023/01/19 17:40:24;;;;;;;11.25;6.28;;;;;;;-1.51;100.00;98261.72;5052742;28;20052;-82
2023/01/19 17:42:51;;;;;;;12.95;6.05;;;;;;;-1.49;100.00;98254.44;5046694;28;20140;-78
2023/01/19 17:45:17;;;;;;;10.88;5.25;;;;;;;-1.56;100.00;98238.13;5035099;28;20485;-78
2023/01/19 17:47:44;;;;;;;10.48;7.03;;;;;;;-1.57;100.00;98236.44;5030463;28;20144;-78
2023/01/19 17:50:11;;;;;;;11.85;6.65;;;;;;;-1.50;100.00;98260.75;5041063;28;20048;-78
2023/01/19 17:52:38;;;;;;;12.07;6.68;;;;;;;-1.43;100.00;98256.56;5049671;28;20049;-78
2023/01/19 17:55:07;;;;;;;11.45;6.07;;;;;;;-1.52;100.00;98236.91;5046483;28;20046;-78
2023/01/19 17:57:34;;;;;;;13.30;7.13;;;;;;;-1.44;100.00;98239.75;5047284;28;20515;-78
2023/01/19 18:00:01;;;;;;;12.32;6.10;;;;;;;-1.34;100.00;98253.13;5040110;28;20049;-78
2023/01/19 18:02:28;;;;;;;12.02;7.25;;;;;;;-1.33;100.00;98249.47;5049018;28;20063;-78
2023/01/19 18:04:55;;;;;;;9.60;5.93;;;;;;;-1.37;100.00;98247.22;5049701;28;20057;-78
2023/01/19 18:07:22;;;;;;;12.48;6.20;;;;;;;-1.46;100.00;98256.84;5051135;28;20568;-78
2023/01/19 18:09:48;;;;;;;9.73;5.28;;;;;;;-1.26;100.00;98273.81;5050927;28;20510;-78
2023/01/19 18:12:17;;;;;;;11.40;5.22;;;;;;;-1.30;100.00;98261.72;5042115;28;20057;-78
2023/01/19 18:14:44;;;;;;;12.50;5.45;;;;;;;-1.35;100.00;98255.94;5048277;28;20052;-78
2023/01/19 18:17:10;;;;;;;10.20;6.25;;;;;;;-1.39;100.00;98254.50;5050907;28;20041;-78
2023/01/19 18:19:37;;;;;;;10.90;5.55;;;;;;;-1.26;100.00;98265.81;5050994;28;20078;-78
2023/01/19 18:22:03;;;;;;;12.00;6.57;;;;;;;-1.29;100.00;98266.06;5050622;28;20068;-78
2023/01/19 18:24:30;;;;;;;9.38;6.35;;;;;;;-1.26;100.00;98279.97;5049832;28;20049;-78
2023/01/19 18:26:56;;;;;;;13.23;5.78;;;;;;;-1.46;100.00;98246.16;5035446;28;20055;-78
2023/01/19 18:29:24;;;;;;;9.27;5.85;;;;;;;-1.29;100.00;98252.75;5041667;28;20070;-82
2023/01/19 18:31:51;;;;;;;11.65;6.03;;;;;;;-1.43;100.00;98238.78;5050257;28;20500;-78
2023/01/19 18:34:17;;;;;;;11.20;5.93;;;;;;;-1.26;100.00;98274.66;5047045;28;20059;-78
2023/01/19 18:36:44;;;;;;;17.35;6.40;;;;;;;-1.38;100.00;98245.53;5037023;28;20052;-78
2023/01/19 18:39:11;;;;;;;11.38;5.85;;;;;;;-1.37;100.00;98257.88;5030833;28;20049;-78
2023/01/19 18:41:40;;;;;;;13.63;6.53;;;;;;;-1.30;100.00;98273.22;5030731;28;20049;-78
2023/01/19 18:44:07;;;;;;;10.48;6.80;;;;;;;-1.42;100.00;98250.28;5039354;28;20099;-78
2023/01/19 18:46:35;;;;;;;11.13;6.53;;;;;;;-1.31;100.00;98263.53;5049898;28;20045;-78
2023/01/19 18:49:02;;;;;;;10.10;6.25;;;;;;;-1.41;100.00;98248.47;5050494;28;20151;-78
2023/01/19 18:51:28;;;;;;;8.75;5.53;;;;;;;-1.36;100.00;98256.91;5050595;28;20049;-78
2023/01/19 18:53:56;;;;;;;13.20;5.63;;;;;;;-1.52;100.00;98257.34;5049374;28;20113;-78